Terminal Aerodrome Forecast
Issued by NWS Buffalo, NY

Home | Current Version | Previous Version | Text Only | Print | Product List | Glossary On
Versions: 1 2 3 4 5 6 7 8 9 10 11 12 13 14 15 16 17 18 19 20 21 22 23 24 25 26 27 28 29
232
FTUS41 KBUF 232333
TAFART
TAF
KART 232333Z 2400/2424 04009KT P6SM OVC120
     FM240500 04010KT 3SM -SN OVC060
     FM240700 04011G18KT 1SM -SNPL OVC015
     FM241300 03012G20KT 1SM -SN OVC007
     FM241900 02010KT 2SM -SN OVC020
     FM242300 01006KT 4SM -SN OVC020=

USA.gov is the U.S. government's official web portal to all federal, state and local government web resources and services.